Stuart, IA

11:35 AM CDT on October 31, 2014 (GMT -0500)
Audubon County | Change Station
CLOSE
Current Station
Airport
Location: Audubon,
Elevation: 1286 ft
Nearby Weather Stations

Elev 1286 ft 41.70 °N, 94.92 °W | Updated 20 minutes ago

Clear
Clear
34 °F
Feels Like 25 °F
N
13
Wind Variable Wind from North
Gusts 20 mph

Today
High -- | Low -- °F
--% Chance of Precip.
Yesterday
High -- | Low -- °F
Precip. -- in
7:47 AM 6:13 PM
First Quarter, 56% visible
Pressure 30.55 in
Visibility 10.0 miles
Clouds Clear
Windchill 25 °F
Dew Point 18 °F
Humidity 52%
Rainfall 0.00 in
Snow Depth Not available.
UV 3 out of 12
Pollen .10 out of 12
Air Quality Not available.
Flu Activity Not available.
METAR KADU 311615Z AUTO 35011G17KT 10SM CLR 01/M08 A3055 RMK AO2

More Conditions Fewer Conditions

Pressure 30.55 in
Visibility 10.0 miles
Clouds Clear
Windchill 25 °F
Dew Point 18 °F
Humidity 52%
Rainfall 0.00 in
Snow Depth Not available.
UV 3 out of 12
Pollen .10 out of 12
Air Quality Not available.
Flu Activity Not available.
METAR KADU 311615Z AUTO 35011G17KT 10SM CLR 01/M08 A3055 RMK AO2

More Conditions Fewer Conditions

10-Day Weather Forecast

Almanac

Astronomy

Oct. 31, 2014 Rise Set
Actual Time
Civil Twilight
Nautical Twilight
Astronomical Twilight
Moon
Length of Visible Light
Length of Day
Tomorrow will be .
, % of the Moon is Illuminated

Today's Extremes

State Highs State Lows

Community

WunderPhotos

Upload Photos

1,766,656 photos uploaded!

WunderBlogs® & News

Nearby

Air Quality

  Air Quality AQ Index Pollutant
Not available.

Snow Depth

Station Depth Elevation

Earthquake Activity

City Distance Mag. Time & Date
Minimum magnitude displayed is 2.5.

Coastal Water Temperatures

Place Temperature

Nearby Weather Stations